createdAt,value
2023-01-13T00:02:09.344Z,5.93
2023-01-13T00:05:05.721Z,3.42
2023-01-13T00:07:57.149Z,3.50
2023-01-13T00:10:53.995Z,2.17
2023-01-13T00:13:42.087Z,3.50
2023-01-13T00:16:32.378Z,3.58
2023-01-13T00:19:20.844Z,2.67
2023-01-13T00:22:09.477Z,3.13
2023-01-13T00:25:02.070Z,5.28
2023-01-13T00:27:50.183Z,4.60
2023-01-13T00:30:43.855Z,2.10
2023-01-13T00:33:32.194Z,5.32
2023-01-13T00:36:21.640Z,4.72
2023-01-13T00:39:13.242Z,3.72
2023-01-13T00:42:26.655Z,4.75
2023-01-13T00:45:15.112Z,3.95
2023-01-13T00:48:03.219Z,4.88
2023-01-13T00:51:02.456Z,3.75
2023-01-13T00:53:56.852Z,5.95
2023-01-13T00:56:45.718Z,2.85
2023-01-13T00:59:34.049Z,4.38
2023-01-13T01:02:27.855Z,6.13
2023-01-13T01:05:16.026Z,5.63
2023-01-13T01:08:05.444Z,6.57
2023-01-13T01:11:03.750Z,7.00
2023-01-13T01:13:53.021Z,4.72
2023-01-13T01:16:47.735Z,7.78
2023-01-13T01:19:39.231Z,3.95
2023-01-13T01:22:27.293Z,3.50
2023-01-13T01:25:15.259Z,5.07
2023-01-13T01:28:02.926Z,4.45
2023-01-13T01:30:51.954Z,4.70
2023-01-13T01:33:41.679Z,2.47
2023-01-13T01:36:36.413Z,6.05
2023-01-13T01:39:25.548Z,3.88
2023-01-13T01:42:35.946Z,3.47
2023-01-13T01:45:25.696Z,4.80
2023-01-13T01:48:13.867Z,2.90
2023-01-13T01:51:08.675Z,2.88
2023-01-13T01:54:00.661Z,6.57
2023-01-13T01:56:49.510Z,3.90
2023-01-13T01:59:38.881Z,1.15
2023-01-13T02:02:27.847Z,2.22
2023-01-13T02:05:16.031Z,2.80
2023-01-13T02:08:05.525Z,6.05
2023-01-13T02:10:55.052Z,5.10
2023-01-13T02:13:43.383Z,5.05
2023-01-13T02:16:32.214Z,3.33
2023-01-13T02:19:42.140Z,5.38
2023-01-13T02:23:10.513Z,2.25
2023-01-13T02:26:32.708Z,2.50
2023-01-13T02:29:48.922Z,4.63
2023-01-13T02:32:53.026Z,1.65
2023-01-13T02:35:55.143Z,5.30
2023-01-13T02:39:01.429Z,4.47
2023-01-13T02:42:18.291Z,1.30
2023-01-13T02:45:34.615Z,2.30
2023-01-13T02:48:25.610Z,3.17
2023-01-13T02:51:28.408Z,1.55
2023-01-13T02:54:29.608Z,2.15
2023-01-13T02:57:29.905Z,2.45
2023-01-13T03:00:21.928Z,1.40
2023-01-13T03:03:10.188Z,1.88
2023-01-13T03:06:26.376Z,3.53
2023-01-13T03:09:17.195Z,2.85
2023-01-13T03:12:20.905Z,2.40
2023-01-13T03:15:37.274Z,1.05
2023-01-13T03:18:28.107Z,1.25
2023-01-13T03:21:50.339Z,4.30
2023-01-13T03:24:47.999Z,3.83
2023-01-13T03:27:50.918Z,2.85
2023-01-13T03:30:59.208Z,2.25
2023-01-13T03:33:58.454Z,4.10
2023-01-13T03:36:51.852Z,0.85
2023-01-13T03:39:54.897Z,2.33
2023-01-13T03:43:27.169Z,1.75
2023-01-13T03:46:22.691Z,1.23
2023-01-13T03:49:28.409Z,1.30
2023-01-13T03:52:35.315Z,1.60
2023-01-13T03:55:30.981Z,2.20
2023-01-13T03:58:33.679Z,2.25
2023-01-13T04:01:35.970Z,3.30
2023-01-13T04:08:17.141Z,1.38
2023-01-13T04:11:10.013Z,0.93
2023-01-13T04:14:04.627Z,2.15
2023-01-13T04:16:54.525Z,2.80
2023-01-13T04:19:50.512Z,1.65
2023-01-13T04:22:40.794Z,2.55
2023-01-13T04:25:34.828Z,1.48
2023-01-13T04:28:46.400Z,1.23
2023-01-13T04:31:34.508Z,1.77
2023-01-13T04:34:28.534Z,2.30
2023-01-13T04:46:09.778Z,1.30
2023-01-13T04:48:57.718Z,0.80
2023-01-13T04:51:48.757Z,2.05
2023-01-13T04:54:37.264Z,2.13
2023-01-13T04:57:39.879Z,1.10
2023-01-13T05:00:32.392Z,1.13
2023-01-13T05:03:32.823Z,1.08
2023-01-13T05:14:54.510Z,2.17
2023-01-13T05:17:37.448Z,3.17
2023-01-13T05:20:45.961Z,3.53
2023-01-13T05:26:37.132Z,1.77
2023-01-13T05:29:39.533Z,0.60
2023-01-13T05:36:35.319Z,0.52
2023-01-13T05:40:13.115Z,0.68
2023-01-13T05:43:40.485Z,2.05
2023-01-13T05:53:42.474Z,1.30
2023-01-13T05:59:50.692Z,1.13
2023-01-13T06:03:06.328Z,4.88
2023-01-13T06:06:22.603Z,4.63
2023-01-13T06:12:30.129Z,2.00
2023-01-13T06:15:20.076Z,4.53
2023-01-13T06:18:08.103Z,2.35
2023-01-13T06:21:02.052Z,4.88
2023-01-13T06:23:50.371Z,2.72
2023-01-13T06:26:47.695Z,1.52
2023-01-13T06:29:48.789Z,3.15
2023-01-13T06:32:48.385Z,2.88
2023-01-13T06:39:15.765Z,10.43
2023-01-13T06:46:01.591Z,4.28
2023-01-13T06:48:53.491Z,6.80
2023-01-13T06:52:07.933Z,2.72
2023-01-13T06:55:05.917Z,3.20
2023-01-13T06:58:04.501Z,6.05
2023-01-13T07:04:12.108Z,7.07
2023-01-13T07:07:06.167Z,9.38
2023-01-13T07:13:11.431Z,5.90
2023-01-13T07:16:05.534Z,3.80
2023-01-13T07:21:41.306Z,3.00
2023-01-13T07:24:29.420Z,2.20
2023-01-13T07:27:22.578Z,3.92
2023-01-13T07:30:11.284Z,3.50
2023-01-13T07:32:59.338Z,4.70
2023-01-13T07:35:48.635Z,2.53
2023-01-13T07:38:41.108Z,3.92
2023-01-13T07:41:47.386Z,3.35
2023-01-13T07:44:35.086Z,3.63
2023-01-13T07:47:28.985Z,3.25
2023-01-13T07:50:17.201Z,2.90
2023-01-13T07:53:06.219Z,2.53
2023-01-13T07:56:02.437Z,1.60
2023-01-13T07:58:54.220Z,4.05
2023-01-13T08:01:45.203Z,7.43
2023-01-13T08:04:36.896Z,5.13
2023-01-13T08:07:24.582Z,3.95
2023-01-13T08:10:12.341Z,4.80
2023-01-13T08:13:39.732Z,5.07
2023-01-13T08:16:43.346Z,3.40
2023-01-13T08:20:04.804Z,3.47
2023-01-13T08:23:00.364Z,2.35
2023-01-13T08:25:58.821Z,3.08
2023-01-13T08:28:50.031Z,1.95
2023-01-13T08:31:50.315Z,2.08
2023-01-13T08:34:41.840Z,3.42
2023-01-13T08:37:33.043Z,2.28
2023-01-13T08:40:26.350Z,3.95
2023-01-13T08:43:21.976Z,2.37
2023-01-13T08:46:14.020Z,2.75
2023-01-13T08:49:06.285Z,5.50
2023-01-13T08:52:06.185Z,6.10
2023-01-13T08:54:54.247Z,2.03
2023-01-13T08:57:46.573Z,1.50
2023-01-13T09:00:41.852Z,1.63
2023-01-13T09:03:32.640Z,1.65
2023-01-13T09:06:22.064Z,4.45
2023-01-13T09:09:10.608Z,5.88
2023-01-13T09:12:17.427Z,5.18
2023-01-13T09:15:07.319Z,3.58
2023-01-13T09:18:02.853Z,4.07
2023-01-13T09:20:55.831Z,9.45
2023-01-13T09:23:44.325Z,6.65
2023-01-13T09:26:36.968Z,2.15
2023-01-13T09:29:27.281Z,5.28
2023-01-13T09:32:22.712Z,5.68
2023-01-13T09:35:16.438Z,3.58
2023-01-13T09:38:10.281Z,4.55
2023-01-13T09:40:58.114Z,3.25
2023-01-13T09:43:59.714Z,3.83
2023-01-13T09:46:58.372Z,5.78
2023-01-13T09:49:58.491Z,3.83
2023-01-13T09:52:50.403Z,3.25
2023-01-13T09:55:45.632Z,3.00
2023-01-13T09:58:34.796Z,5.43
2023-01-13T10:01:31.931Z,2.35
2023-01-13T10:04:20.190Z,3.65
2023-01-13T10:07:13.972Z,3.88
2023-01-13T10:10:04.418Z,3.15
2023-01-13T10:13:10.894Z,5.90
2023-01-13T10:16:10.824Z,4.35
2023-01-13T10:19:29.628Z,4.75
2023-01-13T10:23:14.631Z,4.45
2023-01-13T10:26:55.977Z,8.40
2023-01-13T10:29:44.240Z,6.03
2023-01-13T10:32:35.259Z,6.85
2023-01-13T10:35:53.881Z,7.10
2023-01-13T10:38:52.394Z,6.68
2023-01-13T10:41:44.261Z,9.02
2023-01-13T10:44:32.466Z,5.60
2023-01-13T10:47:35.852Z,8.48
2023-01-13T10:51:04.942Z,8.05
2023-01-13T10:54:21.528Z,7.88
2023-01-13T10:57:28.956Z,8.23
2023-01-13T11:00:42.551Z,8.73
2023-01-13T11:03:47.777Z,9.20
2023-01-13T11:10:27.682Z,8.80
2023-01-13T11:22:43.233Z,6.82
2023-01-13T11:47:28.280Z,6.97
2023-01-13T11:50:57.458Z,8.73
2023-01-13T11:54:08.739Z,6.38
2023-01-13T11:57:03.606Z,3.72
2023-01-13T12:00:31.554Z,7.35
2023-01-13T12:03:55.700Z,8.27
2023-01-13T12:06:50.163Z,4.78
2023-01-13T12:10:12.301Z,5.38
2023-01-13T12:13:22.131Z,9.82
2023-01-13T12:16:21.403Z,6.55
2023-01-13T12:19:31.103Z,5.93
2023-01-13T12:22:47.028Z,8.07
2023-01-13T12:25:52.258Z,6.05
2023-01-13T12:29:15.489Z,7.68
2023-01-13T12:32:13.091Z,11.75
2023-01-13T12:35:20.113Z,9.90
2023-01-13T12:38:28.528Z,10.20
2023-01-13T12:42:01.274Z,5.60
2023-01-13T12:45:12.090Z,8.93
2023-01-13T12:48:03.241Z,5.97
2023-01-13T12:54:50.248Z,5.18
2023-01-13T12:57:55.025Z,5.88
2023-01-13T13:00:52.018Z,9.18
2023-01-13T13:03:42.690Z,9.27
2023-01-13T13:06:37.033Z,7.43
2023-01-13T13:09:33.661Z,15.10
2023-01-13T13:13:09.852Z,6.65
2023-01-13T13:16:27.114Z,5.47
2023-01-13T13:19:22.342Z,10.60
2023-01-13T13:22:14.135Z,11.98
2023-01-13T13:25:21.853Z,3.05
2023-01-13T13:28:18.163Z,4.32
2023-01-13T13:31:21.815Z,6.38
2023-01-13T13:48:48.665Z,5.43
2023-01-13T13:52:22.477Z,10.40
2023-01-13T13:55:25.153Z,7.68
2023-01-13T13:58:29.146Z,7.05
2023-01-13T14:13:25.085Z,10.10
2023-01-13T14:16:20.367Z,9.88
2023-01-13T14:19:32.427Z,7.57
2023-01-13T14:22:24.951Z,5.88
2023-01-13T14:29:35.363Z,8.82
2023-01-13T14:32:41.335Z,8.60
2023-01-13T14:35:38.037Z,8.77
2023-01-13T14:38:25.935Z,7.20
2023-01-13T14:41:26.258Z,7.32
2023-01-13T14:44:24.766Z,8.25
2023-01-13T14:47:29.924Z,11.05
2023-01-13T14:50:29.365Z,7.40
2023-01-13T14:53:40.740Z,8.02
2023-01-13T14:56:50.394Z,5.82
2023-01-13T14:59:52.426Z,6.75
2023-01-13T15:02:54.421Z,9.60
2023-01-13T15:05:59.836Z,7.43
2023-01-13T15:08:50.917Z,6.07
2023-01-13T15:11:44.728Z,6.95
2023-01-13T15:14:57.844Z,6.38
2023-01-13T15:17:52.889Z,10.68
2023-01-13T15:20:47.282Z,5.28
2023-01-13T15:23:39.159Z,10.25
2023-01-13T15:26:32.617Z,9.63
2023-01-13T15:29:22.549Z,8.80
2023-01-13T15:32:26.822Z,5.90
2023-01-13T15:35:23.526Z,9.52
2023-01-13T15:38:28.517Z,8.40
2023-01-13T15:41:45.972Z,9.50
2023-01-13T15:44:58.228Z,7.43
2023-01-13T15:48:27.077Z,8.32
2023-01-13T15:51:24.293Z,9.23
2023-01-13T15:54:27.191Z,9.13
2023-01-13T15:57:33.879Z,5.90
2023-01-13T16:00:29.159Z,6.55
2023-01-13T16:03:20.534Z,10.77
2023-01-13T16:10:35.507Z,5.82
2023-01-13T16:13:24.277Z,13.27
2023-01-13T16:16:27.600Z,7.28
2023-01-13T16:22:23.513Z,8.50
2023-01-13T16:28:53.088Z,12.45
2023-01-13T16:38:27.077Z,8.43
2023-01-13T16:45:53.068Z,9.77
2023-01-13T16:48:34.251Z,8.27
2023-01-13T16:54:27.207Z,8.40
2023-01-13T16:57:26.065Z,7.90
2023-01-13T17:00:23.521Z,8.98
2023-01-13T17:03:33.651Z,8.80
2023-01-13T17:10:14.030Z,10.15
2023-01-13T17:16:53.874Z,10.00
2023-01-13T17:23:33.946Z,11.82
2023-01-13T17:42:23.327Z,17.30
2023-01-13T17:52:49.759Z,13.93
2023-01-13T17:55:51.333Z,9.10
2023-01-13T17:59:05.846Z,5.55
2023-01-13T18:02:05.044Z,11.13
2023-01-13T18:05:10.938Z,12.32
2023-01-13T18:15:30.559Z,6.10
2023-01-13T18:25:24.916Z,7.97
2023-01-13T19:08:59.239Z,10.05
2023-01-13T19:30:04.218Z,10.98
2023-01-13T19:33:08.250Z,10.52
2023-01-13T19:48:57.614Z,10.27
2023-01-13T19:51:56.575Z,13.60
2023-01-13T19:55:07.687Z,13.57
2023-01-13T19:58:03.959Z,15.90
2023-01-13T20:06:43.824Z,14.10
2023-01-13T20:09:50.743Z,21.85
2023-01-13T20:15:57.010Z,12.70
2023-01-13T20:22:17.053Z,9.35
2023-01-13T20:25:11.829Z,15.07
2023-01-13T20:28:06.899Z,11.80
2023-01-13T20:30:56.024Z,12.55
2023-01-13T20:33:44.082Z,11.55
2023-01-13T20:36:39.915Z,9.90
2023-01-13T20:39:34.642Z,16.48
2023-01-13T20:42:47.217Z,13.63
2023-01-13T20:45:36.207Z,13.80
2023-01-13T20:48:26.972Z,13.68
2023-01-13T20:51:36.229Z,9.55
2023-01-13T21:13:09.613Z,10.13
2023-01-13T21:30:18.145Z,13.05
2023-01-13T21:33:06.908Z,7.32
2023-01-13T21:35:55.045Z,9.75
2023-01-13T21:39:01.124Z,16.50
2023-01-13T21:42:07.605Z,12.98
2023-01-13T21:45:14.469Z,11.30
2023-01-13T21:48:02.702Z,14.73
2023-01-13T21:50:51.073Z,12.32
2023-01-13T21:53:38.990Z,11.15
2023-01-13T21:56:27.658Z,10.70
2023-01-13T21:59:15.719Z,11.20
2023-01-13T22:02:25.205Z,11.82
2023-01-13T22:05:16.741Z,14.88
2023-01-13T22:08:10.552Z,12.52
2023-01-13T22:10:58.731Z,13.43
2023-01-13T22:14:05.602Z,14.38
2023-01-13T22:16:55.876Z,16.25
2023-01-13T22:19:46.388Z,11.63
2023-01-13T22:22:37.626Z,10.63
2023-01-13T22:25:28.400Z,15.48
2023-01-13T22:28:26.153Z,18.95
2023-01-13T22:31:23.973Z,10.32
2023-01-13T22:34:15.332Z,14.15
2023-01-13T22:37:03.876Z,11.07
2023-01-13T22:39:54.211Z,11.95
2023-01-13T22:42:43.230Z,14.07
2023-01-13T22:45:31.673Z,16.30
2023-01-13T22:48:19.585Z,21.67
2023-01-13T22:51:10.194Z,17.33
2023-01-13T22:54:00.847Z,15.60
2023-01-13T22:56:49.193Z,15.75
2023-01-13T22:59:36.910Z,8.27
2023-01-13T23:02:25.372Z,16.90
2023-01-13T23:05:14.111Z,17.17
2023-01-13T23:08:02.141Z,21.85
2023-01-13T23:10:50.137Z,14.50
2023-01-13T23:13:39.836Z,15.10
2023-01-13T23:16:32.625Z,10.55
2023-01-13T23:19:38.868Z,12.93
2023-01-13T23:22:30.148Z,18.73
2023-01-13T23:25:26.640Z,12.02
2023-01-13T23:28:19.437Z,16.50
2023-01-13T23:31:18.582Z,16.38
2023-01-13T23:34:12.860Z,13.00
2023-01-13T23:37:02.970Z,18.25
2023-01-13T23:39:50.977Z,19.00
2023-01-13T23:42:41.643Z,16.65
2023-01-13T23:45:32.541Z,17.77
2023-01-13T23:48:24.993Z,17.55
2023-01-13T23:51:16.148Z,24.67
2023-01-13T23:54:04.475Z,23.33
2023-01-13T23:56:53.064Z,24.85
2023-01-13T23:59:41.019Z,25.10
